Anna Desgagnes — VCWS — position and weather

sailwx.info

Track history (hours):
 
Tides and Currents Weather Stations Pressure Air Temp Water Temp Dewpoint Dewpoint Depression Visibility Wind Speed Wind Dir Waves Ship Positions

Anna Desgagnes

Last reported at 2017-Mar-26 06:00 UTC. Time now 2017-Mar-26 07:25 UTC.
Position N 45°30' W 073°30'.

Length 173 m; draft 7 m.

Type: Ship. MMSI: 316297000.

Wind from 030 at 3 knots

Air temperature -2.9 ° C
Dewpoint -6.7 ° C

Date/timePositionNaut miles runAvg speedWind from/ knotsBaromVisibWave heightAir tempDewpointWater temp
2017-Mar-26 06:00N 45°30' W 073°30'0 0.0 030 / 3 -2.9-6.7
2017-Mar-26 05:00N 45°30' W 073°30'0 0.0 030 / 4 -2.4-7.0
2017-Mar-26 04:00N 45°30' W 073°30'0 0.0 100 / 1 -1.6-5.5
2017-Mar-26 03:00N 45°30' W 073°30'0 0.0 140 / 2 -1.1-7.6
2017-Mar-26 02:00N 45°30' W 073°30'0 0.0 140 / 2 -0.4-9.4
2017-Mar-26 01:00N 45°30' W 073°30'0 0.0 200 / 4 -0.6-10.5
2017-Mar-26 00:00N 45°30' W 073°30'0 0.0 200 / 5 -0.4-10.1
2017-Mar-25 23:00N 45°30' W 073°30'0 0.0 180 / 6 0.6-10.4
2017-Mar-25 22:00N 45°30' W 073°30'0 0.0 150 / 2 3.6-9.5
2017-Mar-25 21:00N 45°30' W 073°30'0 0.0 110 / 1 4.5-12.2
2017-Mar-25 20:00N 45°30' W 073°30'0 0.0 010 / 3 2.7-12.1
2017-Mar-25 19:00N 45°30' W 073°30'0 0.0 020 / 5 2.1-12.2
2017-Mar-25 18:00N 45°30' W 073°30'0 0.0 360 / 8 0.7-10.4
2017-Mar-25 17:00N 45°30' W 073°30'0 0.0 360 / 9 -0.1-6.9
2017-Mar-25 16:00N 45°30' W 073°30'0 0.0 010 / 7 -0.6-5.9
2017-Mar-25 15:00N 45°30' W 073°30'0 0.0 360 / 8 -0.7-5.3
2017-Mar-25 14:00N 45°30' W 073°30'0 0.0 010 / 6 -0.4-1.3
2017-Mar-25 13:00N 45°30' W 073°30'0 0.0 010 / 4 -0.4-0.4
2017-Mar-25 12:00N 45°30' W 073°30'0 0.0 -0.9-0.9
2017-Mar-25 11:00N 45°30' W 073°30'0 0.0 -1.6-1.6
2017-Mar-25 10:00N 45°30' W 073°30'0 0.0 190 / 1 -1.6-1.6
2017-Mar-25 09:00N 45°30' W 073°30'0 0.0 080 / 1 -0.2-0.2
2017-Mar-25 08:00N 45°30' W 073°30'0 0.0 330 / 6 -0.1-0.1
2017-Mar-25 07:00N 45°30' W 073°30'0 0.0 120 / 1 -0.0 0.1
2017-Mar-25 06:00N 45°30' W 073°30'0 0.0 090 / 1 -0.0 0.1
2017-Mar-25 05:00N 45°30' W 073°30'0 0.0 310 / 4 -0.2-0.1
2017-Mar-25 04:00N 45°30' W 073°30'0 0.0 340 / 4 -0.3-0.2
2017-Mar-25 03:00N 45°30' W 073°30'0 0.0 300 / 4 -0.4-0.3
2017-Mar-25 02:00N 45°30' W 073°30'0 0.0 340 / 4 -0.3-0.3
2017-Mar-25 01:00N 45°30' W 073°30'0 0.0 350 / 4 -0.2-0.1
2017-Mar-25 00:00N 45°30' W 073°30'0 0.0 -0.4-0.4
2017-Mar-24 23:00N 45°30' W 073°30'0 0.0 150 / 1 -0.2-0.2
2017-Mar-24 22:00N 45°30' W 073°30'0 0.0 160 / 3 -0.2-0.2
2017-Mar-24 21:00N 45°30' W 073°30'0 0.0 160 / 4 -0.6-0.6
2017-Mar-24 20:00N 45°30' W 073°30'0 0.0 140 / 5 -0.7-0.7
2017-Mar-24 19:00N 45°30' W 073°30'0 0.0 150 / 6 -0.0-1.6
2017-Mar-24 18:00N 45°30' W 073°30'0 0.0 180 / 7 -0.3-2.7
2017-Mar-24 17:00N 45°30' W 073°30'0 0.0 160 / 5 -0.3-0.6
2017-Mar-24 16:00N 45°30' W 073°30'0 0.0 170 / 6 -1.0-1.1
2017-Mar-24 15:00N 45°30' W 073°30'0 0.0 160 / 6 -1.6-1.7
2017-Mar-24 14:00N 45°30' W 073°30'0 0.0 150 / 7 -2.2-2.5
2017-Mar-24 13:00N 45°30' W 073°30'0 0.0 140 / 5 -0.2-7.8
2017-Mar-24 12:00N 45°30' W 073°30'0 0.0 150 / 3 -0.8-7.9
2017-Mar-24 11:00N 45°30' W 073°30'0 0.0 190 / 7 -1.5-10.1
2017-Mar-24 10:00N 45°30' W 073°30'0 0.0 170 / 6 -1.7-9.1
2017-Mar-24 09:00N 45°30' W 073°30'0 0.0 160 / 6 -1.0-10.4
2017-Mar-24 08:00N 45°30' W 073°30'0 0.0 180 / 4 -1.6-11.1
2017-Mar-24 07:00N 45°30' W 073°30'0 0.0 180 / 4 -1.9-10.0
2017-Mar-24 06:00N 45°30' W 073°30'0 0.0 170 / 5 -1.5-11.1
2017-Mar-24 05:00N 45°30' W 073°30'0 0.0 170 / 6 -0.7-10.4
2017-Mar-24 04:00N 45°30' W 073°30'0 0.0 200 / 7 -0.5-11.3
2017-Mar-24 03:00N 45°30' W 073°30'0 0.0 200 / 4 -0.4-13.4
2017-Mar-24 02:00N 45°30' W 073°30'0 0.0 210 / 4 -0.4-13.1
2017-Mar-24 01:00N 45°30' W 073°30'0 0.0 220 / 6 -0.3-13.7
2017-Mar-24 00:00N 45°30' W 073°30'0 0.0 220 / 6 -0.4-14.4
2017-Mar-23 22:00N 45°30' W 073°30'0 0.0 230 / 8 0.6-17.2
2017-Mar-23 21:00N 45°30' W 073°30'0 0.0 230 / 10 -0.0-16.8
2017-Mar-23 20:00N 45°30' W 073°30'0 0.0 230 / 8 -0.6-17.1
2017-Mar-23 19:00N 45°30' W 073°30'0 0.0 210 / 8 -1.5-17.5
2017-Mar-23 18:00N 45°30' W 073°30'0 0.0 280 / 5 -2.2-18.5
2017-Mar-23 17:00N 45°30' W 073°30'0 0.0 230 / 6 -3.1-18.2
2017-Mar-23 16:00N 45°30' W 073°30'0 0.0 310 / 10 -4.1-19.3
2017-Mar-23 15:00N 45°30' W 073°30'0 0.0 300 / 7 -5.2-19.4
2017-Mar-23 14:00N 45°30' W 073°30'0 0.0 300 / 3 -6.4-19.1
2017-Mar-23 13:00N 45°30' W 073°30'0 0.0 300 / 7 -7.7-19.4
2017-Mar-23 12:00N 45°30' W 073°30'0 0.0 300 / 8 -8.0-19.7
2017-Mar-23 11:00N 45°30' W 073°30'0 0.0 250 / 6 -8.5-20.3
2017-Mar-23 10:00N 45°30' W 073°30'0 0.0 300 / 3 -8.4-20.4
2017-Mar-23 09:00N 45°30' W 073°30'0 0.0 250 / 6 -8.7-20.8
2017-Mar-23 08:00N 45°30' W 073°30'0 0.0 240 / 5 -8.6-20.8
2017-Mar-23 07:00N 45°30' W 073°30'0 0.0 240 / 4 -8.5-20.7
2017-Mar-23 06:00N 45°30' W 073°30'0 0.0 290 / 4 -7.9-21.2
2017-Mar-23 05:00N 45°30' W 073°30'0 0.0 290 / 7 -7.8-21.7
2017-Mar-23 04:00N 45°30' W 073°30'0 0.0 290 / 8 -7.6-21.9
2017-Mar-23 03:00N 45°30' W 073°30'0 0.0 290 / 9 -7.5-21.9
2017-Mar-23 02:00N 45°30' W 073°30'0 0.0 290 / 9 -7.6-22.0
2017-Mar-23 01:00N 45°30' W 073°30'0 0.0 290 / 9 -7.6-21.8
2017-Mar-23 00:00N 45°30' W 073°30'0 0.0 270 / 10 -7.6-21.7
2017-Mar-22 23:00N 45°30' W 073°30'0 0.0 300 / 11 -7.3-21.8
2017-Mar-22 22:00N 45°30' W 073°30'0 0.0 290 / 13 -7.2-21.7
2017-Mar-22 21:00N 45°30' W 073°30'0 0.0 290 / 11 -7.3-21.4
2017-Mar-22 20:00N 45°30' W 073°30'0 0.0 280 / 8 -8.0-20.7
2017-Mar-22 19:00N 45°30' W 073°30'0 0.0 290 / 12 -8.6-22.1
2017-Mar-22 18:00N 45°30' W 073°30'0 0.0 290 / 11 -9.5-21.6
2017-Mar-22 17:00N 45°30' W 073°30'0 0.0 300 / 11 -10.6-22.0
2017-Mar-22 16:00N 45°30' W 073°30'0 0.0 290 / 10 -11.5-21.9
2017-Mar-22 15:00N 45°30' W 073°30'0 0.0 300 / 10 -12.4-22.3
2017-Mar-22 14:00N 45°30' W 073°30'0 0.0 320 / 15 -13.2-23.0
2017-Mar-22 13:00N 45°30' W 073°30'0 0.0 320 / 15 -13.0-23.4
2017-Mar-22 12:00N 45°30' W 073°30'0 0.0 320 / 19 -12.6-22.6
2017-Mar-22 11:00N 45°30' W 073°30'0 0.0 330 / 14 -10.7-19.2
2017-Mar-22 10:00N 45°30' W 073°30'0 0.0 320 / 16 -10.1-16.5
2017-Mar-22 09:00N 45°30' W 073°30'0 0.0 310 / 17 -8.5-13.6
2017-Mar-22 08:00N 45°30' W 073°30'0 0.0 320 / 12 -6.0-11.6
2017-Mar-22 07:00N 45°30' W 073°30'0 0.0 340 / 12 -5.1-6.9
2017-Mar-22 06:00N 45°30' W 073°30'0 0.0 350 / 21 -1.8-6.6
2017-Mar-22 05:00N 45°30' W 073°30'0 0.0 300 / 10 1.5 1.4
2017-Mar-22 04:00N 45°30' W 073°30'0 0.0 270 / 2 2.0 1.7
2017-Mar-22 03:00N 45°30' W 073°30'0 0.0 140 / 3 1.7 1.6
2017-Mar-22 02:00N 45°30' W 073°30'0 0.0 130 / 2 2.3 1.6
2017-Mar-22 01:00N 45°30' W 073°30'0 0.0 170 / 4 2.7 1.3
2017-Mar-22 00:00N 45°30' W 073°30'0 0.0 200 / 5 2.8 1.2
2017-Mar-21 23:00N 45°30' W 073°30'0 0.0 200 / 10 2.4 0.7
2017-Mar-21 22:00N 45°30' W 073°30'0 0.0 200 / 10 3.2 0.8
2017-Mar-21 21:00N 45°30' W 073°30'0 0.0 170 / 6 5.2 0.8
2017-Mar-21 20:00N 45°30' W 073°30'0 0.0 190 / 6 4.4 0.3
2017-Mar-21 19:00N 45°30' W 073°30'0 0.0 200 / 5 4.3 0.3
2017-Mar-21 18:00N 45°30' W 073°30'0 0.0 190 / 5 3.5 0.5
2017-Mar-21 17:00N 45°30' W 073°30'0 0.0 200 / 7 3.3 1.2
2017-Mar-21 16:00N 45°30' W 073°30'0 0.0 210 / 6 2.7 0.8
2017-Mar-21 15:00N 45°30' W 073°30'0 0.0 190 / 4 3.7 1.2
2017-Mar-21 14:00N 45°30' W 073°30'0 0.0 090 / 2 3.3 1.4
2017-Mar-21 13:00N 45°30' W 073°30'0 0.0 3.0 1.4
2017-Mar-21 12:00N 45°30' W 073°30'0 0.0 200 / 5 1.8 0.5
2017-Mar-21 11:00N 45°30' W 073°30'0 0.0 200 / 4 1.8 0.3
2017-Mar-21 10:00N 45°30' W 073°30'0 0.0 200 / 4 1.7 0.2
2017-Mar-21 09:00N 45°30' W 073°30'0 0.0 230 / 4 1.6 0.4
2017-Mar-21 08:00N 45°30' W 073°30'0 0.0 220 / 6 1.6 0.4
2017-Mar-21 07:00N 45°30' W 073°30'0 0.0 210 / 5 1.9-0.2
2017-Mar-21 06:00N 45°30' W 073°30'0 0.0 220 / 5 2.1-0.3
2017-Mar-21 05:00N 45°30' W 073°30'0 0.0 220 / 7 2.4-0.3
2017-Mar-21 04:00N 45°30' W 073°30'0 0.0 210 / 8 2.6-0.2
2017-Mar-21 03:00N 45°30' W 073°30'0 0.0 210 / 7 2.9-0.8
2017-Mar-21 02:00N 45°30' W 073°30'0 0.0 220 / 6 3.2-1.2
2017-Mar-21 01:00N 45°30' W 073°30'0 0.0 210 / 5 3.2-2.1
2017-Mar-21 00:00N 45°30' W 073°30'0 0.0 230 / 6 4.0-3.7
2017-Mar-20 23:00N 45°30' W 073°30'0 0.0 210 / 4 4.6-4.1
2017-Mar-20 22:00N 45°30' W 073°30'0 0.0 210 / 6 5.0-5.8
2017-Mar-20 21:00N 45°30' W 073°30'0 0.0 200 / 5 5.6-9.1
2017-Mar-20 20:00N 45°30' W 073°30'0 0.0 200 / 5 5.7-9.3
2017-Mar-20 19:00N 45°30' W 073°30'0 0.0 200 / 6 5.9-9.9
2017-Mar-20 18:00N 45°30' W 073°30'0 0.0 120 / 3 5.5-7.2
2017-Mar-20 17:00N 45°30' W 073°30'0 0.0 140 / 2 5.1-7.0
2017-Mar-20 16:00N 45°30' W 073°30'0 0.0 110 / 2 3.0-7.0
2017-Mar-20 15:00N 45°30' W 073°30'0 0.0 170 / 3 2.5-7.5
2017-Mar-20 14:00N 45°30' W 073°30'0 0.0 160 / 3 0.5-7.0
2017-Mar-20 13:00N 45°30' W 073°30'0 0.0 170 / 2 -0.7-6.8
2017-Mar-20 12:00N 45°30' W 073°30'0 0.0 220 / 2 -2.6-7.5
2017-Mar-20 11:00N 45°30' W 073°30'0 0.0 220 / 1 -3.6-7.5
2017-Mar-20 10:00N 45°30' W 073°30'0 0.0 170 / 2 -3.7-7.2
2017-Mar-20 09:00N 45°30' W 073°30'0 0.0 140 / 2 -3.3-6.6
2017-Mar-20 08:00N 45°30' W 073°30'0 0.0 200 / 3 -3.4-6.6
2017-Mar-20 07:00N 45°30' W 073°30'0 0.0 150 / 2 -1.8-6.6
2017-Mar-20 06:00N 45°30' W 073°30'0 0.0 120 / 2 -0.3-5.6
2017-Mar-20 05:00N 45°30' W 073°30'0 0.0 320 / 2 0.9-8.6
2017-Mar-20 04:00N 45°30' W 073°30'0 0.0 090 / 2 0.8-5.6
2017-Mar-20 03:00N 45°30' W 073°30'0 0.0 1.1-7.7
2017-Mar-20 02:00N 45°30' W 073°30'0 0.0 350 / 3 1.7-7.8
2017-Mar-20 01:00N 45°30' W 073°30'0 0.0 080 / 1 1.8-3.6
2017-Mar-20 00:00N 45°30' W 073°30'0 0.0 340 / 1 2.2-9.5
2017-Mar-19 23:00N 45°30' W 073°30'0 0.0 350 / 3 2.5-7.8
2017-Mar-19 22:00N 45°30' W 073°30'0 0.0 350 / 6 3.5-8.8
2017-Mar-19 21:00N 45°30' W 073°30'0 0.0 350 / 9 2.8-8.4
2017-Mar-19 20:00N 45°30' W 073°30'0 0.0 360 / 7 2.5-8.0
2017-Mar-19 19:00N 45°30' W 073°30'0 0.0 360 / 8 2.1-7.9
2017-Mar-19 18:00N 45°30' W 073°30'0 0.0 350 / 8 0.8-8.3
2017-Mar-19 17:00N 45°30' W 073°30'0 0.0 350 / 9 -0.2-8.1
2017-Mar-19 16:00N 45°30' W 073°30'0 0.0 350 / 8 -1.5-8.2
2017-Mar-19 15:00N 45°30' W 073°30'0 0.0 360 / 7 -2.4-7.3
2017-Mar-19 14:00N 45°30' W 073°30'0 0.0 360 / 7 -4.1-7.8
2017-Mar-19 13:00N 45°30' W 073°30'0 0.0 360 / 8 -5.2-7.6
2017-Mar-19 12:00N 45°30' W 073°30'0 0.0 350 / 8 -5.6-7.4
2017-Mar-19 11:00N 45°30' W 073°30'0 0.0 350 / 7 -6.0-7.7
2017-Mar-19 10:00N 45°30' W 073°30'0 0.0 350 / 6 -5.5-7.5
2017-Mar-19 09:00N 45°30' W 073°30'0 0.0 350 / 6 -5.0-7.5
2017-Mar-19 08:00N 45°30' W 073°30'0 0.0 350 / 6 -4.5-7.3
2017-Mar-19 07:00N 45°30' W 073°30'0 0.0 360 / 5 -4.0-7.0
2017-Mar-19 06:00N 45°30' W 073°30'0 0.0 350 / 5 -3.4-7.8
2017-Mar-19 05:00N 45°30' W 073°30'0 0.0 350 / 7 -2.9-8.1
2017-Mar-19 04:00N 45°30' W 073°30'0 0.0 350 / 7 -2.6-8.3
2017-Mar-19 03:00N 45°30' W 073°30'0 0.0 350 / 8 -2.4-8.5
2017-Mar-19 02:00N 45°30' W 073°30'0 0.0 360 / 7 -1.9-8.5
2017-Mar-19 01:00N 45°30' W 073°30'0 0.0 360 / 9 -1.4-8.4
2017-Mar-19 00:00N 45°30' W 073°30'0 0.0 360 / 8 -1.0-8.4
2017-Mar-18 23:00N 45°30' W 073°30'0 0.0 360 / 9 -0.5-8.8
2017-Mar-18 22:00N 45°30' W 073°30'0 0.0 350 / 10 0.3-8.6
2017-Mar-18 21:00N 45°30' W 073°30'0 0.0 020 / 6 1.2-9.1
2017-Mar-18 20:00N 45°30' W 073°30'0 0.0 020 / 8 0.9-10.0
2017-Mar-18 19:00N 45°30' W 073°30'0 0.0 020 / 7 1.0-10.1
2017-Mar-18 18:00N 45°30' W 073°30'0 0.0 360 / 8 -0.6-9.6
2017-Mar-18 17:00N 45°30' W 073°30'0 0.0 350 / 10 -2.5-10.1
2017-Mar-18 16:00N 45°30' W 073°30'0 0.0 350 / 9 -4.4-11.1
2017-Mar-18 15:00N 45°30' W 073°30'0 0.0 350 / 9 -6.5-12.1
2017-Mar-18 14:00N 45°30' W 073°30'0 0.0 350 / 8 -8.0-13.5
2017-Mar-18 13:00N 45°30' W 073°30'0 0.0 350 / 7 -8.9-13.6
2017-Mar-18 12:00N 45°30' W 073°30'0 0.0 350 / 5 -9.0-13.6
2017-Mar-18 11:00N 45°30' W 073°30'0 0.0 020 / 3 -8.7-13.7
2017-Mar-18 10:00N 45°30' W 073°30'0 0.0 030 / 2 -9.0-13.5
2017-Mar-18 09:00N 45°30' W 073°30'0 0.0 040 / 2 -9.0-12.9
2017-Mar-18 08:00N 45°30' W 073°30'0 0.0 -8.7-12.4
2017-Mar-18 07:00N 45°30' W 073°30'0 0.0 110 / 1 -8.0-13.4
2017-Mar-18 06:00N 45°30' W 073°30'0 0.0 110 / 1 -6.1-11.5
2017-Mar-18 05:00N 45°30' W 073°30'0 0.0 180 / 5 -6.0-12.4
2017-Mar-18 04:00N 45°30' W 073°30'0 0.0 200 / 4 -6.2-11.6
2017-Mar-18 03:00N 45°30' W 073°30'0 0.0 150 / 3 -5.4-11.7
2017-Mar-18 02:00N 45°30' W 073°30'0 0.0 110 / 3 -3.3-10.2
2017-Mar-18 01:00N 45°30' W 073°30'0 0.0 200 / 3 -3.1-12.2
2017-Mar-18 00:00N 45°30' W 073°30'0 0.0 210 / 5 -2.9-12.7
2017-Mar-17 23:00N 45°30' W 073°30'0 0.0 210 / 8 -2.6-13.4
2017-Mar-17 22:00N 45°30' W 073°30'0 0.0 200 / 7 -2.5-13.5
2017-Mar-17 21:00N 45°30' W 073°30'0 0.0 200 / 9 -2.3-14.2
2017-Mar-17 20:00N 45°30' W 073°30'0 0.0 210 / 7 -2.8-15.1
2017-Mar-17 19:00N 45°30' W 073°30'0 0.0 190 / 10 -3.2-14.5
2017-Mar-17 18:00N 45°30' W 073°30'0 0.0 190 / 10 -3.5-14.9
2017-Mar-17 17:00N 45°30' W 073°30'0 0.0 200 / 8 -4.1-16.0
2017-Mar-17 16:00N 45°30' W 073°30'0 0.0 310 / 1 -2.1-15.5
2017-Mar-17 15:00N 45°30' W 073°30'0 0.0 320 / 5 -5.2-16.7
2017-Mar-17 14:00N 45°30' W 073°30'0 0.0 310 / 7 -6.5-17.0
2017-Mar-17 13:00N 45°30' W 073°30'0 0.0 310 / 9 -7.0-17.4
2017-Mar-17 12:00N 45°30' W 073°30'0 0.0 320 / 8 -7.2-16.9
2017-Mar-17 11:00N 45°30' W 073°30'0 0.0 330 / 10 -7.4-16.5
2017-Mar-17 10:00N 45°30' W 073°30'0 0.0 320 / 9 -6.2-15.5
2017-Mar-17 09:00N 45°30' W 073°30'0 0.0 340 / 6 -5.4-14.5
2017-Mar-17 08:00N 45°30' W 073°30'0 0.0 350 / 4 -4.9-12.4
2017-Mar-17 07:00N 45°30' W 073°30'0 0.0 -5.6-11.2
2017-Mar-17 06:00N 45°30' W 073°30'0 0.0 020 / 3 -5.0-11.2
2017-Mar-17 05:00N 45°30' W 073°30'0 0.0 020 / 3 -4.8-11.4
2017-Mar-17 04:00N 45°30' W 073°30'0 0.0 010 / 4 -3.5-12.5
2017-Mar-17 03:00N 45°30' W 073°30'0 0.0 340 / 7 -3.1-13.8
2017-Mar-17 02:00N 45°30' W 073°30'0 0.0 290 / 9 -2.8-15.5
2017-Mar-17 01:00N 45°30' W 073°30'0 0.0 310 / 6 -2.9-14.8
2017-Mar-17 00:00N 45°30' W 073°30'0 0.0 290 / 7 -3.2-14.7
2017-Mar-16 23:00N 45°30' W 073°30'0 0.0 300 / 4 -3.5-13.7
2017-Mar-16 22:00N 45°30' W 073°30'0 0.0 240 / 5 -4.3-14.5
2017-Mar-16 21:00N 45°30' W 073°30'0 0.0 230 / 9 -5.0-14.6
2017-Mar-16 20:00N 45°30' W 073°30'0 0.0 240 / 8 -5.1-14.1
2017-Mar-16 19:00N 45°30' W 073°30'0 0.0 230 / 11 -6.3-14.6
2017-Mar-16 18:00N 45°30' W 073°30'0 0.0 240 / 13 -7.0-14.9
2017-Mar-16 17:00N 45°30' W 073°30'0 0.0 260 / 7 -7.0-14.2
2017-Mar-16 16:00N 45°30' W 073°30'0 0.0 260 / 8 -7.9-15.0
2017-Mar-16 15:00N 45°30' W 073°30'0 0.0 230 / 8 -8.8-13.2
2017-Mar-16 14:00N 45°30' W 073°30'0 0.0 240 / 12 -9.2-14.9
2017-Mar-16 13:00N 45°30' W 073°30'0 0.0 240 / 7 -9.4-13.9
2017-Mar-16 12:00N 45°30' W 073°30'0 0.0 240 / 8 -9.3-14.2
2017-Mar-16 11:00N 45°30' W 073°30'0 0.0 240 / 5 -9.0-13.6
2017-Mar-16 10:00N 45°30' W 073°30'0 0.0 260 / 7 -8.5-14.8
2017-Mar-16 09:00N 45°30' W 073°30'0 0.0 250 / 6 -8.4-14.7
2017-Mar-16 08:00N 45°30' W 073°30'0 0.0 260 / 6 -8.2-14.4
2017-Mar-16 07:00N 45°30' W 073°30'0 0.0 280 / 6 -8.3-12.4
2017-Mar-16 06:00N 45°30' W 073°30'   290 / 10 -7.5-11.5
Track history (hours):
 
Tides and Currents Weather Stations Pressure Air Temp Water Temp Dewpoint Dewpoint Depression Visibility Wind Speed Wind Dir Waves Ship Positions

Anna Desgagnes

Last reported at 2017-Mar-26 06:00 UTC. Time now 2017-Mar-26 07:25 UTC.
Position N 45°30' W 073°30'.

Length 173 m; draft 7 m.

Type: Ship. MMSI: 316297000.

Wind from 030 at 3 knots

Air temperature -2.9 ° C
Dewpoint -6.7 ° C

Date/timePositionNaut miles runAvg speedWind from/ knotsBaromVisibWave heightAir tempDewpointWater temp
2017-Mar-26 06:00N 45°30' W 073°30'0 0.0 030 / 3 -2.9-6.7
2017-Mar-26 05:00N 45°30' W 073°30'0 0.0 030 / 4 -2.4-7.0
2017-Mar-26 04:00N 45°30' W 073°30'0 0.0 100 / 1 -1.6-5.5
2017-Mar-26 03:00N 45°30' W 073°30'0 0.0 140 / 2 -1.1-7.6
2017-Mar-26 02:00N 45°30' W 073°30'0 0.0 140 / 2 -0.4-9.4
2017-Mar-26 01:00N 45°30' W 073°30'0 0.0 200 / 4 -0.6-10.5
2017-Mar-26 00:00N 45°30' W 073°30'0 0.0 200 / 5 -0.4-10.1
2017-Mar-25 23:00N 45°30' W 073°30'0 0.0 180 / 6 0.6-10.4
2017-Mar-25 22:00N 45°30' W 073°30'0 0.0 150 / 2 3.6-9.5
2017-Mar-25 21:00N 45°30' W 073°30'0 0.0 110 / 1 4.5-12.2
2017-Mar-25 20:00N 45°30' W 073°30'0 0.0 010 / 3 2.7-12.1
2017-Mar-25 19:00N 45°30' W 073°30'0 0.0 020 / 5 2.1-12.2
2017-Mar-25 18:00N 45°30' W 073°30'0 0.0 360 / 8 0.7-10.4
2017-Mar-25 17:00N 45°30' W 073°30'0 0.0 360 / 9 -0.1-6.9
2017-Mar-25 16:00N 45°30' W 073°30'0 0.0 010 / 7 -0.6-5.9
2017-Mar-25 15:00N 45°30' W 073°30'0 0.0 360 / 8 -0.7-5.3
2017-Mar-25 14:00N 45°30' W 073°30'0 0.0 010 / 6 -0.4-1.3
2017-Mar-25 13:00N 45°30' W 073°30'0 0.0 010 / 4 -0.4-0.4
2017-Mar-25 12:00N 45°30' W 073°30'0 0.0 -0.9-0.9
2017-Mar-25 11:00N 45°30' W 073°30'0 0.0 -1.6-1.6
2017-Mar-25 10:00N 45°30' W 073°30'0 0.0 190 / 1 -1.6-1.6
2017-Mar-25 09:00N 45°30' W 073°30'0 0.0 080 / 1 -0.2-0.2
2017-Mar-25 08:00N 45°30' W 073°30'0 0.0 330 / 6 -0.1-0.1
2017-Mar-25 07:00N 45°30' W 073°30'0 0.0 120 / 1 -0.0 0.1
2017-Mar-25 06:00N 45°30' W 073°30'0 0.0 090 / 1 -0.0 0.1
2017-Mar-25 05:00N 45°30' W 073°30'0 0.0 310 / 4 -0.2-0.1
2017-Mar-25 04:00N 45°30' W 073°30'0 0.0 340 / 4 -0.3-0.2
2017-Mar-25 03:00N 45°30' W 073°30'0 0.0 300 / 4 -0.4-0.3
2017-Mar-25 02:00N 45°30' W 073°30'0 0.0 340 / 4 -0.3-0.3
2017-Mar-25 01:00N 45°30' W 073°30'0 0.0 350 / 4 -0.2-0.1
2017-Mar-25 00:00N 45°30' W 073°30'0 0.0 -0.4-0.4
2017-Mar-24 23:00N 45°30' W 073°30'0 0.0 150 / 1 -0.2-0.2
2017-Mar-24 22:00N 45°30' W 073°30'0 0.0 160 / 3 -0.2-0.2
2017-Mar-24 21:00N 45°30' W 073°30'0 0.0 160 / 4 -0.6-0.6
2017-Mar-24 20:00N 45°30' W 073°30'0 0.0 140 / 5 -0.7-0.7
2017-Mar-24 19:00N 45°30' W 073°30'0 0.0 150 / 6 -0.0-1.6
2017-Mar-24 18:00N 45°30' W 073°30'0 0.0 180 / 7 -0.3-2.7
2017-Mar-24 17:00N 45°30' W 073°30'0 0.0 160 / 5 -0.3-0.6
2017-Mar-24 16:00N 45°30' W 073°30'0 0.0 170 / 6 -1.0-1.1
2017-Mar-24 15:00N 45°30' W 073°30'0 0.0 160 / 6 -1.6-1.7
2017-Mar-24 14:00N 45°30' W 073°30'0 0.0 150 / 7 -2.2-2.5
2017-Mar-24 13:00N 45°30' W 073°30'0 0.0 140 / 5 -0.2-7.8
2017-Mar-24 12:00N 45°30' W 073°30'0 0.0 150 / 3 -0.8-7.9
2017-Mar-24 11:00N 45°30' W 073°30'0 0.0 190 / 7 -1.5-10.1
2017-Mar-24 10:00N 45°30' W 073°30'0 0.0 170 / 6 -1.7-9.1
2017-Mar-24 09:00N 45°30' W 073°30'0 0.0 160 / 6 -1.0-10.4
2017-Mar-24 08:00N 45°30' W 073°30'0 0.0 180 / 4 -1.6-11.1
2017-Mar-24 07:00N 45°30' W 073°30'0 0.0 180 / 4 -1.9-10.0
2017-Mar-24 06:00N 45°30' W 073°30'0 0.0 170 / 5 -1.5-11.1
2017-Mar-24 05:00N 45°30' W 073°30'0 0.0 170 / 6 -0.7-10.4
2017-Mar-24 04:00N 45°30' W 073°30'0 0.0 200 / 7 -0.5-11.3
2017-Mar-24 03:00N 45°30' W 073°30'0 0.0 200 / 4 -0.4-13.4
2017-Mar-24 02:00N 45°30' W 073°30'0 0.0 210 / 4 -0.4-13.1
2017-Mar-24 01:00N 45°30' W 073°30'0 0.0 220 / 6 -0.3-13.7
2017-Mar-24 00:00N 45°30' W 073°30'0 0.0 220 / 6 -0.4-14.4
2017-Mar-23 22:00N 45°30' W 073°30'0 0.0 230 / 8 0.6-17.2
2017-Mar-23 21:00N 45°30' W 073°30'0 0.0 230 / 10 -0.0-16.8
2017-Mar-23 20:00N 45°30' W 073°30'0 0.0 230 / 8 -0.6-17.1
2017-Mar-23 19:00N 45°30' W 073°30'0 0.0 210 / 8 -1.5-17.5
2017-Mar-23 18:00N 45°30' W 073°30'0 0.0 280 / 5 -2.2-18.5
2017-Mar-23 17:00N 45°30' W 073°30'0 0.0 230 / 6 -3.1-18.2
2017-Mar-23 16:00N 45°30' W 073°30'0 0.0 310 / 10 -4.1-19.3
2017-Mar-23 15:00N 45°30' W 073°30'0 0.0 300 / 7 -5.2-19.4
2017-Mar-23 14:00N 45°30' W 073°30'0 0.0 300 / 3 -6.4-19.1
2017-Mar-23 13:00N 45°30' W 073°30'0 0.0 300 / 7 -7.7-19.4
2017-Mar-23 12:00N 45°30' W 073°30'0 0.0 300 / 8 -8.0-19.7
2017-Mar-23 11:00N 45°30' W 073°30'0 0.0 250 / 6 -8.5-20.3
2017-Mar-23 10:00N 45°30' W 073°30'0 0.0 300 / 3 -8.4-20.4
2017-Mar-23 09:00N 45°30' W 073°30'0 0.0 250 / 6 -8.7-20.8
2017-Mar-23 08:00N 45°30' W 073°30'0 0.0 240 / 5 -8.6-20.8
2017-Mar-23 07:00N 45°30' W 073°30'0 0.0 240 / 4 -8.5-20.7
2017-Mar-23 06:00N 45°30' W 073°30'0 0.0 290 / 4 -7.9-21.2
2017-Mar-23 05:00N 45°30' W 073°30'0 0.0 290 / 7 -7.8-21.7
2017-Mar-23 04:00N 45°30' W 073°30'0 0.0 290 / 8 -7.6-21.9
2017-Mar-23 03:00N 45°30' W 073°30'0 0.0 290 / 9 -7.5-21.9
2017-Mar-23 02:00N 45°30' W 073°30'0 0.0 290 / 9 -7.6-22.0
2017-Mar-23 01:00N 45°30' W 073°30'0 0.0 290 / 9 -7.6-21.8
2017-Mar-23 00:00N 45°30' W 073°30'0 0.0 270 / 10 -7.6-21.7
2017-Mar-22 23:00N 45°30' W 073°30'0 0.0 300 / 11 -7.3-21.8
2017-Mar-22 22:00N 45°30' W 073°30'0 0.0 290 / 13 -7.2-21.7
2017-Mar-22 21:00N 45°30' W 073°30'0 0.0 290 / 11 -7.3-21.4
2017-Mar-22 20:00N 45°30' W 073°30'0 0.0 280 / 8 -8.0-20.7
2017-Mar-22 19:00N 45°30' W 073°30'0 0.0 290 / 12 -8.6-22.1
2017-Mar-22 18:00N 45°30' W 073°30'0 0.0 290 / 11 -9.5-21.6
2017-Mar-22 17:00N 45°30' W 073°30'0 0.0 300 / 11 -10.6-22.0
2017-Mar-22 16:00N 45°30' W 073°30'0 0.0 290 / 10 -11.5-21.9
2017-Mar-22 15:00N 45°30' W 073°30'0 0.0 300 / 10 -12.4-22.3
2017-Mar-22 14:00N 45°30' W 073°30'0 0.0 320 / 15 -13.2-23.0
2017-Mar-22 13:00N 45°30' W 073°30'0 0.0 320 / 15 -13.0-23.4
2017-Mar-22 12:00N 45°30' W 073°30'0 0.0 320 / 19 -12.6-22.6
2017-Mar-22 11:00N 45°30' W 073°30'0 0.0 330 / 14 -10.7-19.2
2017-Mar-22 10:00N 45°30' W 073°30'0 0.0 320 / 16 -10.1-16.5
2017-Mar-22 09:00N 45°30' W 073°30'0 0.0 310 / 17 -8.5-13.6
2017-Mar-22 08:00N 45°30' W 073°30'0 0.0 320 / 12 -6.0-11.6
2017-Mar-22 07:00N 45°30' W 073°30'0 0.0 340 / 12 -5.1-6.9
2017-Mar-22 06:00N 45°30' W 073°30'0 0.0 350 / 21 -1.8-6.6
2017-Mar-22 05:00N 45°30' W 073°30'0 0.0 300 / 10 1.5 1.4
2017-Mar-22 04:00N 45°30' W 073°30'0 0.0 270 / 2 2.0 1.7
2017-Mar-22 03:00N 45°30' W 073°30'0 0.0 140 / 3 1.7 1.6
2017-Mar-22 02:00N 45°30' W 073°30'0 0.0 130 / 2 2.3 1.6
2017-Mar-22 01:00N 45°30' W 073°30'0 0.0 170 / 4 2.7 1.3
2017-Mar-22 00:00N 45°30' W 073°30'0 0.0 200 / 5 2.8 1.2
2017-Mar-21 23:00N 45°30' W 073°30'0 0.0 200 / 10 2.4 0.7
2017-Mar-21 22:00N 45°30' W 073°30'0 0.0 200 / 10 3.2 0.8
2017-Mar-21 21:00N 45°30' W 073°30'0 0.0 170 / 6 5.2 0.8
2017-Mar-21 20:00N 45°30' W 073°30'0 0.0 190 / 6 4.4 0.3
2017-Mar-21 19:00N 45°30' W 073°30'0 0.0 200 / 5 4.3 0.3
2017-Mar-21 18:00N 45°30' W 073°30'0 0.0 190 / 5 3.5 0.5
2017-Mar-21 17:00N 45°30' W 073°30'0 0.0 200 / 7 3.3 1.2
2017-Mar-21 16:00N 45°30' W 073°30'0 0.0 210 / 6 2.7 0.8
2017-Mar-21 15:00N 45°30' W 073°30'0 0.0 190 / 4 3.7 1.2
2017-Mar-21 14:00N 45°30' W 073°30'0 0.0 090 / 2 3.3 1.4
2017-Mar-21 13:00N 45°30' W 073°30'0 0.0 3.0 1.4
2017-Mar-21 12:00N 45°30' W 073°30'0 0.0 200 / 5 1.8 0.5
2017-Mar-21 11:00N 45°30' W 073°30'0 0.0 200 / 4 1.8 0.3
2017-Mar-21 10:00N 45°30' W 073°30'0 0.0 200 / 4 1.7 0.2
2017-Mar-21 09:00N 45°30' W 073°30'0 0.0 230 / 4 1.6 0.4
2017-Mar-21 08:00N 45°30' W 073°30'0 0.0 220 / 6 1.6 0.4
2017-Mar-21 07:00N 45°30' W 073°30'0 0.0 210 / 5 1.9-0.2
2017-Mar-21 06:00N 45°30' W 073°30'0 0.0 220 / 5 2.1-0.3
2017-Mar-21 05:00N 45°30' W 073°30'0 0.0 220 / 7 2.4-0.3
2017-Mar-21 04:00N 45°30' W 073°30'0 0.0 210 / 8 2.6-0.2
2017-Mar-21 03:00N 45°30' W 073°30'0 0.0 210 / 7 2.9-0.8
2017-Mar-21 02:00N 45°30' W 073°30'0 0.0 220 / 6 3.2-1.2
2017-Mar-21 01:00N 45°30' W 073°30'0 0.0 210 / 5 3.2-2.1
2017-Mar-21 00:00N 45°30' W 073°30'0 0.0 230 / 6 4.0-3.7
2017-Mar-20 23:00N 45°30' W 073°30'0 0.0 210 / 4 4.6-4.1
2017-Mar-20 22:00N 45°30' W 073°30'0 0.0 210 / 6 5.0-5.8
2017-Mar-20 21:00N 45°30' W 073°30'0 0.0 200 / 5 5.6-9.1
2017-Mar-20 20:00N 45°30' W 073°30'0 0.0 200 / 5 5.7-9.3
2017-Mar-20 19:00N 45°30' W 073°30'0 0.0 200 / 6 5.9-9.9
2017-Mar-20 18:00N 45°30' W 073°30'0 0.0 120 / 3 5.5-7.2
2017-Mar-20 17:00N 45°30' W 073°30'0 0.0 140 / 2 5.1-7.0
2017-Mar-20 16:00N 45°30' W 073°30'0 0.0 110 / 2 3.0-7.0
2017-Mar-20 15:00N 45°30' W 073°30'0 0.0 170 / 3 2.5-7.5
2017-Mar-20 14:00N 45°30' W 073°30'0 0.0 160 / 3 0.5-7.0
2017-Mar-20 13:00N 45°30' W 073°30'0 0.0 170 / 2 -0.7-6.8
2017-Mar-20 12:00N 45°30' W 073°30'0 0.0 220 / 2 -2.6-7.5
2017-Mar-20 11:00N 45°30' W 073°30'0 0.0 220 / 1 -3.6-7.5
2017-Mar-20 10:00N 45°30' W 073°30'0 0.0 170 / 2 -3.7-7.2
2017-Mar-20 09:00N 45°30' W 073°30'0 0.0 140 / 2 -3.3-6.6
2017-Mar-20 08:00N 45°30' W 073°30'0 0.0 200 / 3 -3.4-6.6
2017-Mar-20 07:00N 45°30' W 073°30'0 0.0 150 / 2 -1.8-6.6
2017-Mar-20 06:00N 45°30' W 073°30'0 0.0 120 / 2 -0.3-5.6
2017-Mar-20 05:00N 45°30' W 073°30'0 0.0 320 / 2 0.9-8.6
2017-Mar-20 04:00N 45°30' W 073°30'0 0.0 090 / 2 0.8-5.6
2017-Mar-20 03:00N 45°30' W 073°30'0 0.0 1.1-7.7
2017-Mar-20 02:00N 45°30' W 073°30'0 0.0 350 / 3 1.7-7.8
2017-Mar-20 01:00N 45°30' W 073°30'0 0.0 080 / 1 1.8-3.6
2017-Mar-20 00:00N 45°30' W 073°30'0 0.0 340 / 1 2.2-9.5
2017-Mar-19 23:00N 45°30' W 073°30'0 0.0 350 / 3 2.5-7.8
2017-Mar-19 22:00N 45°30' W 073°30'0 0.0 350 / 6 3.5-8.8
2017-Mar-19 21:00N 45°30' W 073°30'0 0.0 350 / 9 2.8-8.4
2017-Mar-19 20:00N 45°30' W 073°30'0 0.0 360 / 7 2.5-8.0
2017-Mar-19 19:00N 45°30' W 073°30'0 0.0 360 / 8 2.1-7.9
2017-Mar-19 18:00N 45°30' W 073°30'0 0.0 350 / 8 0.8-8.3
2017-Mar-19 17:00N 45°30' W 073°30'0 0.0 350 / 9 -0.2-8.1
2017-Mar-19 16:00N 45°30' W 073°30'0 0.0 350 / 8 -1.5-8.2
2017-Mar-19 15:00N 45°30' W 073°30'0 0.0 360 / 7 -2.4-7.3
2017-Mar-19 14:00N 45°30' W 073°30'0 0.0 360 / 7 -4.1-7.8
2017-Mar-19 13:00N 45°30' W 073°30'0 0.0 360 / 8 -5.2-7.6
2017-Mar-19 12:00N 45°30' W 073°30'0 0.0 350 / 8 -5.6-7.4
2017-Mar-19 11:00N 45°30' W 073°30'0 0.0 350 / 7 -6.0-7.7
2017-Mar-19 10:00N 45°30' W 073°30'0 0.0 350 / 6 -5.5-7.5
2017-Mar-19 09:00N 45°30' W 073°30'0 0.0 350 / 6 -5.0-7.5
2017-Mar-19 08:00N 45°30' W 073°30'0 0.0 350 / 6 -4.5-7.3
2017-Mar-19 07:00N 45°30' W 073°30'0 0.0 360 / 5 -4.0-7.0
2017-Mar-19 06:00N 45°30' W 073°30'0 0.0 350 / 5 -3.4-7.8
2017-Mar-19 05:00N 45°30' W 073°30'0 0.0 350 / 7 -2.9-8.1
2017-Mar-19 04:00N 45°30' W 073°30'0 0.0 350 / 7 -2.6-8.3
2017-Mar-19 03:00N 45°30' W 073°30'0 0.0 350 / 8 -2.4-8.5
2017-Mar-19 02:00N 45°30' W 073°30'0 0.0 360 / 7 -1.9-8.5
2017-Mar-19 01:00N 45°30' W 073°30'0 0.0 360 / 9 -1.4-8.4
2017-Mar-19 00:00N 45°30' W 073°30'0 0.0 360 / 8 -1.0-8.4
2017-Mar-18 23:00N 45°30' W 073°30'0 0.0 360 / 9 -0.5-8.8
2017-Mar-18 22:00N 45°30' W 073°30'0 0.0 350 / 10 0.3-8.6
2017-Mar-18 21:00N 45°30' W 073°30'0 0.0 020 / 6 1.2-9.1
2017-Mar-18 20:00N 45°30' W 073°30'0 0.0 020 / 8 0.9-10.0
2017-Mar-18 19:00N 45°30' W 073°30'0 0.0 020 / 7 1.0-10.1
2017-Mar-18 18:00N 45°30' W 073°30'0 0.0 360 / 8 -0.6-9.6
2017-Mar-18 17:00N 45°30' W 073°30'0 0.0 350 / 10 -2.5-10.1
2017-Mar-18 16:00N 45°30' W 073°30'0 0.0 350 / 9 -4.4-11.1
2017-Mar-18 15:00N 45°30' W 073°30'0 0.0 350 / 9 -6.5-12.1
2017-Mar-18 14:00N 45°30' W 073°30'0 0.0 350 / 8 -8.0-13.5
2017-Mar-18 13:00N 45°30' W 073°30'0 0.0 350 / 7 -8.9-13.6
2017-Mar-18 12:00N 45°30' W 073°30'0 0.0 350 / 5 -9.0-13.6
2017-Mar-18 11:00N 45°30' W 073°30'0 0.0 020 / 3 -8.7-13.7
2017-Mar-18 10:00N 45°30' W 073°30'0 0.0 030 / 2 -9.0-13.5
2017-Mar-18 09:00N 45°30' W 073°30'0 0.0 040 / 2 -9.0-12.9
2017-Mar-18 08:00N 45°30' W 073°30'0 0.0 -8.7-12.4
2017-Mar-18 07:00N 45°30' W 073°30'0 0.0 110 / 1 -8.0-13.4
2017-Mar-18 06:00N 45°30' W 073°30'0 0.0 110 / 1 -6.1-11.5
2017-Mar-18 05:00N 45°30' W 073°30'0 0.0 180 / 5 -6.0-12.4
2017-Mar-18 04:00N 45°30' W 073°30'0 0.0 200 / 4 -6.2-11.6
2017-Mar-18 03:00N 45°30' W 073°30'0 0.0 150 / 3 -5.4-11.7
2017-Mar-18 02:00N 45°30' W 073°30'0 0.0 110 / 3 -3.3-10.2
2017-Mar-18 01:00N 45°30' W 073°30'0 0.0 200 / 3 -3.1-12.2
2017-Mar-18 00:00N 45°30' W 073°30'0 0.0 210 / 5 -2.9-12.7
2017-Mar-17 23:00N 45°30' W 073°30'0 0.0 210 / 8 -2.6-13.4
2017-Mar-17 22:00N 45°30' W 073°30'0 0.0 200 / 7 -2.5-13.5
2017-Mar-17 21:00N 45°30' W 073°30'0 0.0 200 / 9 -2.3-14.2
2017-Mar-17 20:00N 45°30' W 073°30'0 0.0 210 / 7 -2.8-15.1
2017-Mar-17 19:00N 45°30' W 073°30'0 0.0 190 / 10 -3.2-14.5
2017-Mar-17 18:00N 45°30' W 073°30'0 0.0 190 / 10 -3.5-14.9
2017-Mar-17 17:00N 45°30' W 073°30'0 0.0 200 / 8 -4.1-16.0
2017-Mar-17 16:00N 45°30' W 073°30'0 0.0 310 / 1 -2.1-15.5
2017-Mar-17 15:00N 45°30' W 073°30'0 0.0 320 / 5 -5.2-16.7
2017-Mar-17 14:00N 45°30' W 073°30'0 0.0 310 / 7 -6.5-17.0
2017-Mar-17 13:00N 45°30' W 073°30'0 0.0 310 / 9 -7.0-17.4
2017-Mar-17 12:00N 45°30' W 073°30'0 0.0 320 / 8 -7.2-16.9
2017-Mar-17 11:00N 45°30' W 073°30'0 0.0 330 / 10 -7.4-16.5
2017-Mar-17 10:00N 45°30' W 073°30'0 0.0 320 / 9 -6.2-15.5
2017-Mar-17 09:00N 45°30' W 073°30'0 0.0 340 / 6 -5.4-14.5
2017-Mar-17 08:00N 45°30' W 073°30'0 0.0 350 / 4 -4.9-12.4
2017-Mar-17 07:00N 45°30' W 073°30'0 0.0 -5.6-11.2
2017-Mar-17 06:00N 45°30' W 073°30'0 0.0 020 / 3 -5.0-11.2
2017-Mar-17 05:00N 45°30' W 073°30'0 0.0 020 / 3 -4.8-11.4
2017-Mar-17 04:00N 45°30' W 073°30'0 0.0 010 / 4 -3.5-12.5
2017-Mar-17 03:00N 45°30' W 073°30'0 0.0 340 / 7 -3.1-13.8
2017-Mar-17 02:00N 45°30' W 073°30'0 0.0 290 / 9 -2.8-15.5
2017-Mar-17 01:00N 45°30' W 073°30'0 0.0 310 / 6 -2.9-14.8
2017-Mar-17 00:00N 45°30' W 073°30'0 0.0 290 / 7 -3.2-14.7
2017-Mar-16 23:00N 45°30' W 073°30'0 0.0 300 / 4 -3.5-13.7
2017-Mar-16 22:00N 45°30' W 073°30'0 0.0 240 / 5 -4.3-14.5
2017-Mar-16 21:00N 45°30' W 073°30'0 0.0 230 / 9 -5.0-14.6
2017-Mar-16 20:00N 45°30' W 073°30'0 0.0 240 / 8 -5.1-14.1
2017-Mar-16 19:00N 45°30' W 073°30'0 0.0 230 / 11 -6.3-14.6
2017-Mar-16 18:00N 45°30' W 073°30'0 0.0 240 / 13 -7.0-14.9
2017-Mar-16 17:00N 45°30' W 073°30'0 0.0 260 / 7 -7.0-14.2
2017-Mar-16 16:00N 45°30' W 073°30'0 0.0 260 / 8 -7.9-15.0
2017-Mar-16 15:00N 45°30' W 073°30'0 0.0 230 / 8 -8.8-13.2
2017-Mar-16 14:00N 45°30' W 073°30'0 0.0 240 / 12 -9.2-14.9
2017-Mar-16 13:00N 45°30' W 073°30'0 0.0 240 / 7 -9.4-13.9
2017-Mar-16 12:00N 45°30' W 073°30'0 0.0 240 / 8 -9.3-14.2
2017-Mar-16 11:00N 45°30' W 073°30'0 0.0 240 / 5 -9.0-13.6
2017-Mar-16 10:00N 45°30' W 073°30'0 0.0 260 / 7 -8.5-14.8
2017-Mar-16 09:00N 45°30' W 073°30'0 0.0 250 / 6 -8.4-14.7
2017-Mar-16 08:00N 45°30' W 073°30'0 0.0 260 / 6 -8.2-14.4
2017-Mar-16 07:00N 45°30' W 073°30'0 0.0 280 / 6 -8.3-12.4
2017-Mar-16 06:00N 45°30' W 073°30'   290 / 10 -7.5-11.5

Dump ship's entire track history